createdAt,value
2023-05-09T00:01:36.053Z,22.22
2023-05-09T00:04:03.422Z,22.20
2023-05-09T00:06:30.631Z,22.23
2023-05-09T00:08:58.156Z,22.23
2023-05-09T00:11:25.369Z,22.22
2023-05-09T00:13:53.264Z,22.22
2023-05-09T00:16:23.952Z,22.22
2023-05-09T00:18:51.224Z,22.21
2023-05-09T00:21:18.418Z,22.23
2023-05-09T00:23:46.950Z,22.22
2023-05-09T00:26:14.112Z,22.22
2023-05-09T00:28:41.308Z,22.22
2023-05-09T00:31:08.470Z,22.24
2023-05-09T00:33:35.636Z,22.21
2023-05-09T00:36:02.904Z,22.22
2023-05-09T00:38:30.055Z,22.23
2023-05-09T00:40:57.241Z,22.24
2023-05-09T00:43:24.405Z,22.22
2023-05-09T00:45:51.668Z,22.20
2023-05-09T00:48:18.932Z,22.21
2023-05-09T00:50:47.100Z,22.20
2023-05-09T00:53:14.288Z,22.21
2023-05-09T00:55:41.528Z,22.20
2023-05-09T00:58:08.694Z,22.19
2023-05-09T01:00:36.664Z,22.23
2023-05-09T01:03:04.965Z,22.23
2023-05-09T01:05:57.876Z,22.21
2023-05-09T01:08:44.413Z,22.20
2023-05-09T01:11:29.112Z,22.20
2023-05-09T01:14:08.466Z,22.17
2023-05-09T01:16:42.651Z,22.20
2023-05-09T01:19:47.354Z,22.21
2023-05-09T01:22:16.448Z,22.17
2023-05-09T01:24:53.256Z,22.22
2023-05-09T01:27:47.926Z,22.19
2023-05-09T01:30:15.915Z,22.17
2023-05-09T01:32:44.654Z,22.18
2023-05-09T01:35:14.707Z,22.20
2023-05-09T01:37:43.598Z,22.19
2023-05-09T01:40:21.431Z,22.19
2023-05-09T01:43:04.124Z,22.16
2023-05-09T01:45:33.562Z,22.18
2023-05-09T01:48:01.470Z,22.18
2023-05-09T01:50:30.327Z,22.17
2023-05-09T01:52:59.086Z,22.18
2023-05-09T01:55:29.670Z,22.21
2023-05-09T01:57:58.652Z,22.18
2023-05-09T02:00:25.911Z,22.18
2023-05-09T02:02:53.500Z,22.17
2023-05-09T02:05:22.120Z,22.20
2023-05-09T02:07:49.757Z,22.16
2023-05-09T02:10:17.048Z,22.17
2023-05-09T02:12:44.339Z,22.18
2023-05-09T02:15:11.855Z,22.15
2023-05-09T02:17:39.151Z,22.14
2023-05-09T02:20:08.512Z,22.16
2023-05-09T02:22:35.920Z,22.13
2023-05-09T02:25:04.973Z,22.17
2023-05-09T02:27:32.685Z,22.18
2023-05-09T02:30:03.750Z,22.13
2023-05-09T02:32:32.659Z,22.14
2023-05-09T02:35:01.759Z,22.13
2023-05-09T02:37:29.288Z,22.14
2023-05-09T02:39:56.896Z,22.17
2023-05-09T02:42:26.297Z,22.13
2023-05-09T02:44:54.103Z,22.12
2023-05-09T02:47:21.947Z,22.09
2023-05-09T02:49:49.180Z,22.12
2023-05-09T02:52:16.386Z,22.09
2023-05-09T02:54:43.546Z,22.13
2023-05-09T02:57:11.016Z,22.14
2023-05-09T02:59:38.256Z,22.12
2023-05-09T03:02:05.487Z,22.09
2023-05-09T03:04:34.622Z,22.11
2023-05-09T03:07:02.014Z,22.13
2023-05-09T03:09:29.228Z,22.14
2023-05-09T03:11:56.777Z,22.09
2023-05-09T03:14:23.991Z,22.04
2023-05-09T03:16:51.193Z,22.03
2023-05-09T03:19:18.402Z,22.06
2023-05-09T03:21:45.605Z,22.06
2023-05-09T03:24:12.831Z,22.04
2023-05-09T03:26:40.123Z,22.06
2023-05-09T03:29:07.313Z,22.06
2023-05-09T03:31:34.644Z,22.03
2023-05-09T03:34:01.871Z,22.05
2023-05-09T03:36:29.043Z,22.05
2023-05-09T03:38:56.225Z,22.06
2023-05-09T03:41:23.383Z,22.07
2023-05-09T03:43:50.699Z,22.06
2023-05-09T03:46:17.891Z,22.07
2023-05-09T03:48:45.221Z,22.07
2023-05-09T03:51:12.385Z,22.09
2023-05-09T03:53:39.608Z,22.04
2023-05-09T03:56:07.698Z,22.05
2023-05-09T03:58:34.921Z,22.06
2023-05-09T04:01:02.213Z,22.04
2023-05-09T04:03:29.529Z,22.02
2023-05-09T04:05:56.940Z,22.03
2023-05-09T04:08:24.366Z,22.02
2023-05-09T04:10:52.484Z,22.01
2023-05-09T04:13:19.738Z,22.01
2023-05-09T04:15:47.013Z,22.04
2023-05-09T04:18:14.249Z,22.06
2023-05-09T04:20:41.459Z,22.03
2023-05-09T04:23:08.988Z,22.00
2023-05-09T04:25:37.313Z,22.02
2023-05-09T04:28:04.602Z,22.05
2023-05-09T04:30:31.898Z,22.02
2023-05-09T04:32:59.152Z,22.03
2023-05-09T04:35:26.731Z,22.04
2023-05-09T04:37:53.916Z,22.05
2023-05-09T04:40:21.149Z,22.05
2023-05-09T04:42:48.441Z,22.07
2023-05-09T04:45:15.896Z,22.12
2023-05-09T04:47:43.388Z,22.09
2023-05-09T04:50:11.120Z,22.09
2023-05-09T04:52:38.410Z,22.12
2023-05-09T04:55:06.238Z,22.08
2023-05-09T04:57:33.542Z,22.02
2023-05-09T05:00:00.992Z,22.07
2023-05-09T05:02:28.279Z,22.08
2023-05-09T05:05:06.268Z,22.03
2023-05-09T05:07:38.878Z,21.92
2023-05-09T05:10:06.674Z,21.89
2023-05-09T05:12:33.991Z,21.85
2023-05-09T05:15:01.206Z,21.82
2023-05-09T05:17:29.640Z,21.78
2023-05-09T05:19:57.032Z,21.78
2023-05-09T05:22:24.606Z,21.72
2023-05-09T05:24:51.797Z,21.65
2023-05-09T05:27:18.971Z,21.68
2023-05-09T05:29:46.162Z,21.61
2023-05-09T05:32:13.548Z,21.64
2023-05-09T05:34:40.774Z,21.55
2023-05-09T05:37:08.028Z,21.48
2023-05-09T05:39:35.234Z,21.40
2023-05-09T05:42:02.440Z,21.33
2023-05-09T05:44:29.629Z,21.30
2023-05-09T05:46:56.865Z,21.41
2023-05-09T05:49:25.085Z,21.47
2023-05-09T05:51:52.322Z,21.47
2023-05-09T05:54:19.554Z,21.50
2023-05-09T05:56:49.622Z,21.36
2023-05-09T05:59:16.861Z,21.25
2023-05-09T06:01:44.229Z,21.31
2023-05-09T06:04:11.688Z,21.34
2023-05-09T06:06:39.124Z,21.34
2023-05-09T06:09:06.450Z,21.35
2023-05-09T06:11:33.649Z,21.35
2023-05-09T06:14:00.877Z,21.51
2023-05-09T06:16:29.216Z,21.37
2023-05-09T06:18:56.627Z,21.47
2023-05-09T06:21:24.068Z,21.36
2023-05-09T06:24:06.673Z,21.34
2023-05-09T06:26:37.473Z,21.43
2023-05-09T06:29:06.394Z,21.55
2023-05-09T06:31:38.208Z,21.65
2023-05-09T06:34:06.055Z,21.81
2023-05-09T06:36:33.659Z,21.96
2023-05-09T06:39:00.986Z,21.61
2023-05-09T06:41:28.280Z,21.58
2023-05-09T06:43:56.217Z,21.74
2023-05-09T06:46:23.572Z,21.74
2023-05-09T06:48:50.881Z,21.72
2023-05-09T06:51:18.237Z,21.74
2023-05-09T06:53:45.653Z,21.96
2023-05-09T06:56:13.235Z,21.90
2023-05-09T06:58:40.644Z,21.94
2023-05-09T07:01:08.398Z,21.75
2023-05-09T07:03:35.889Z,21.88
2023-05-09T07:06:03.294Z,21.75
2023-05-09T07:08:30.570Z,21.62
2023-05-09T07:10:57.875Z,21.65
2023-05-09T07:13:25.220Z,21.59
2023-05-09T07:15:52.759Z,21.66
2023-05-09T07:18:20.292Z,21.74
2023-05-09T07:20:47.577Z,21.83
2023-05-09T07:23:17.802Z,21.80
2023-05-09T07:25:45.489Z,22.05
2023-05-09T07:28:12.926Z,22.20
2023-05-09T07:30:40.452Z,22.25
2023-05-09T07:33:08.096Z,22.28
2023-05-09T07:35:35.556Z,22.17
2023-05-09T07:38:02.867Z,22.19
2023-05-09T07:40:30.082Z,22.18
2023-05-09T07:42:57.278Z,22.15
2023-05-09T07:45:24.500Z,22.18
2023-05-09T07:47:51.730Z,22.01
2023-05-09T07:50:19.020Z,22.24
2023-05-09T07:52:46.585Z,22.37
2023-05-09T07:57:46.706Z,22.52
2023-05-09T08:00:15.050Z,22.56
2023-05-09T08:02:42.385Z,22.58
2023-05-09T08:05:11.719Z,22.48
2023-05-09T08:07:39.285Z,22.37
2023-05-09T08:10:06.870Z,22.24
2023-05-09T08:12:34.199Z,22.17
2023-05-09T08:15:01.454Z,22.08
2023-05-09T08:17:28.746Z,21.76
2023-05-09T08:19:55.941Z,21.93
2023-05-09T08:22:23.133Z,22.06
2023-05-09T08:24:50.306Z,22.09
2023-05-09T08:27:17.479Z,22.09
2023-05-09T08:29:44.607Z,22.13
2023-05-09T08:32:11.744Z,22.18
2023-05-09T08:34:38.868Z,22.30
2023-05-09T08:37:08.886Z,22.40
2023-05-09T08:39:36.365Z,22.45
2023-05-09T08:42:03.524Z,22.50
2023-05-09T08:44:31.429Z,22.55
2023-05-09T08:46:59.712Z,22.54
2023-05-09T08:49:26.918Z,22.16
2023-05-09T08:51:54.592Z,22.03
2023-05-09T08:54:22.976Z,22.09
2023-05-09T08:56:51.077Z,22.06
2023-05-09T08:59:19.478Z,21.98
2023-05-09T09:01:46.818Z,21.98
2023-05-09T09:04:14.130Z,21.99
2023-05-09T09:06:41.522Z,21.96
2023-05-09T09:09:11.385Z,21.92
2023-05-09T09:11:38.955Z,21.89
2023-05-09T09:14:23.605Z,21.84
2023-05-09T09:16:52.235Z,21.83
2023-05-09T09:19:20.984Z,21.80
2023-05-09T09:21:50.982Z,21.79
2023-05-09T09:24:22.303Z,21.76
2023-05-09T09:26:51.029Z,21.79
2023-05-09T09:29:19.246Z,22.01
2023-05-09T09:31:47.464Z,22.19
2023-05-09T09:34:21.458Z,22.32
2023-05-09T09:36:48.929Z,22.35
2023-05-09T09:39:16.438Z,22.33
2023-05-09T09:41:45.016Z,22.35
2023-05-09T09:44:20.793Z,22.31
2023-05-09T09:46:55.434Z,22.25
2023-05-09T09:49:24.396Z,22.02
2023-05-09T09:51:52.210Z,21.93
2023-05-09T09:54:21.810Z,21.94
2023-05-09T09:56:51.889Z,22.16
2023-05-09T09:59:21.176Z,22.29
2023-05-09T10:02:07.504Z,22.31
2023-05-09T10:04:37.118Z,22.23
2023-05-09T10:07:06.621Z,22.19
2023-05-09T10:09:35.096Z,22.20
2023-05-09T10:12:07.204Z,22.18
2023-05-09T10:14:35.974Z,22.14
2023-05-09T10:17:05.423Z,22.10
2023-05-09T10:19:33.262Z,22.07
2023-05-09T10:22:05.516Z,22.06
2023-05-09T10:24:48.840Z,22.10
2023-05-09T10:27:19.589Z,22.03
2023-05-09T10:29:52.149Z,22.17
2023-05-09T10:32:27.980Z,22.28
2023-05-09T10:35:02.146Z,22.35
2023-05-09T10:37:30.604Z,22.42
2023-05-09T10:39:59.676Z,22.25
2023-05-09T10:42:30.292Z,22.08
2023-05-09T10:44:58.053Z,22.03
2023-05-09T10:47:28.463Z,21.98
2023-05-09T10:49:56.005Z,21.95
2023-05-09T10:52:23.261Z,21.95
2023-05-09T10:55:04.424Z,21.93
2023-05-09T10:57:32.481Z,21.92
2023-05-09T11:00:02.970Z,21.94
2023-05-09T11:02:32.513Z,22.08
2023-05-09T11:05:19.349Z,22.34
2023-05-09T11:07:46.722Z,22.40
2023-05-09T11:10:18.139Z,22.44
2023-05-09T11:12:58.382Z,22.50
2023-05-09T11:15:27.856Z,22.52
2023-05-09T11:18:10.161Z,22.23
2023-05-09T11:20:44.073Z,22.11
2023-05-09T11:23:17.242Z,22.08
2023-05-09T11:25:47.780Z,22.15
2023-05-09T11:28:29.148Z,22.35
2023-05-09T11:31:15.962Z,22.44
2023-05-09T11:33:45.244Z,22.50
2023-05-09T11:36:27.970Z,22.56
2023-05-09T11:39:09.147Z,22.54
2023-05-09T11:41:41.120Z,22.42
2023-05-09T11:44:20.021Z,22.26
2023-05-09T11:46:54.005Z,22.23
2023-05-09T11:49:21.874Z,22.17
2023-05-09T11:51:49.290Z,21.93
2023-05-09T11:54:16.510Z,21.74
2023-05-09T11:56:43.818Z,21.79
2023-05-09T11:59:13.252Z,21.76
2023-05-09T12:01:40.681Z,21.81
2023-05-09T12:04:08.779Z,21.85
2023-05-09T12:06:38.874Z,21.86
2023-05-09T12:09:06.626Z,21.80
2023-05-09T12:11:35.005Z,21.79
2023-05-09T12:14:02.229Z,21.76
2023-05-09T12:16:29.523Z,21.77
2023-05-09T12:18:56.879Z,21.95
2023-05-09T12:21:24.118Z,22.15
2023-05-09T12:23:53.193Z,22.24
2023-05-09T12:26:22.729Z,22.20
2023-05-09T12:28:50.102Z,22.20
2023-05-09T12:31:18.199Z,22.20
2023-05-09T12:33:45.910Z,22.20
2023-05-09T12:36:14.040Z,22.19
2023-05-09T12:38:42.096Z,22.19
2023-05-09T12:41:22.408Z,22.21
2023-05-09T12:43:58.081Z,22.23
2023-05-09T12:46:25.652Z,22.25
2023-05-09T12:48:53.033Z,22.32
2023-05-09T12:51:21.893Z,22.38
2023-05-09T12:53:49.275Z,22.35
2023-05-09T12:56:18.902Z,22.29
2023-05-09T12:58:53.990Z,22.27
2023-05-09T13:01:23.263Z,22.35
2023-05-09T13:04:14.262Z,22.44
2023-05-09T13:06:53.257Z,22.50
2023-05-09T13:09:20.424Z,22.54
2023-05-09T13:11:47.785Z,22.59
2023-05-09T13:14:15.331Z,22.63
2023-05-09T13:16:43.206Z,22.64
2023-05-09T13:19:10.579Z,22.67
2023-05-09T13:21:37.955Z,22.71
2023-05-09T13:24:07.691Z,22.72
2023-05-09T13:26:34.989Z,22.75
2023-05-09T13:29:02.246Z,22.77
2023-05-09T13:31:29.522Z,22.78
2023-05-09T13:33:56.781Z,22.78
2023-05-09T13:36:24.080Z,22.81
2023-05-09T13:38:51.354Z,22.74
2023-05-09T13:41:23.442Z,22.35
2023-05-09T13:43:51.042Z,22.14
2023-05-09T13:46:18.322Z,22.24
2023-05-09T13:48:47.628Z,22.38
2023-05-09T13:51:15.114Z,22.52
2023-05-09T13:53:42.427Z,22.61
2023-05-09T13:56:09.764Z,22.65
2023-05-09T13:58:37.113Z,22.69
2023-05-09T14:01:04.422Z,22.73
2023-05-09T14:03:31.920Z,22.77
2023-05-09T14:05:59.847Z,22.82
2023-05-09T14:08:27.120Z,22.83
2023-05-09T14:10:54.948Z,22.85
2023-05-09T14:13:24.919Z,22.87
2023-05-09T14:15:52.999Z,22.89
2023-05-09T14:18:21.270Z,22.93
2023-05-09T14:20:48.685Z,22.85
2023-05-09T14:23:15.920Z,22.80
2023-05-09T14:25:43.233Z,22.83
2023-05-09T14:28:10.526Z,22.84
2023-05-09T14:30:37.842Z,22.81
2023-05-09T14:33:05.705Z,22.83
2023-05-09T14:35:34.233Z,22.77
2023-05-09T14:38:01.831Z,22.74
2023-05-09T14:40:32.200Z,22.72
2023-05-09T14:43:02.367Z,22.51
2023-05-09T14:45:30.421Z,22.49
2023-05-09T14:47:57.913Z,22.58
2023-05-09T14:50:25.684Z,22.70
2023-05-09T14:52:53.098Z,22.77
2023-05-09T14:55:21.933Z,22.84
2023-05-09T14:57:52.151Z,22.86
2023-05-09T15:00:21.692Z,22.90
2023-05-09T15:02:50.077Z,22.92
2023-05-09T15:05:17.977Z,22.93
2023-05-09T15:07:45.272Z,22.94
2023-05-09T15:10:12.745Z,22.95
2023-05-09T15:12:40.110Z,22.96
2023-05-09T15:15:18.798Z,22.98
2023-05-09T15:17:46.932Z,22.99
2023-05-09T15:20:18.294Z,23.00
2023-05-09T15:22:49.959Z,22.92
2023-05-09T15:25:17.447Z,22.90
2023-05-09T15:27:44.746Z,22.91
2023-05-09T15:30:16.126Z,22.89
2023-05-09T15:32:44.181Z,22.85
2023-05-09T15:35:11.504Z,22.90
2023-05-09T15:37:38.945Z,22.93
2023-05-09T15:40:07.489Z,22.85
2023-05-09T15:42:35.007Z,22.86
2023-05-09T15:45:03.690Z,22.93
2023-05-09T15:47:31.238Z,22.98
2023-05-09T15:49:58.591Z,22.98
2023-05-09T15:52:27.506Z,22.97
2023-05-09T15:54:56.218Z,22.94
2023-05-09T15:57:24.847Z,22.95
2023-05-09T15:59:55.101Z,22.97
2023-05-09T16:02:22.798Z,23.00
2023-05-09T16:04:50.173Z,23.02
2023-05-09T16:07:19.531Z,22.95
2023-05-09T16:09:47.328Z,22.69
2023-05-09T16:12:14.755Z,22.61
2023-05-09T16:14:42.624Z,22.55
2023-05-09T16:17:10.004Z,22.52
2023-05-09T16:19:37.247Z,22.39
2023-05-09T16:22:04.474Z,22.08
2023-05-09T16:24:31.995Z,22.06
2023-05-09T16:26:59.226Z,22.11
2023-05-09T16:29:28.416Z,22.14
2023-05-09T16:31:56.029Z,22.23
2023-05-09T16:34:23.366Z,22.16
2023-05-09T16:36:52.237Z,22.22
2023-05-09T16:39:19.490Z,22.13
2023-05-09T16:41:46.710Z,22.15
2023-05-09T16:44:15.455Z,22.20
2023-05-09T16:46:42.934Z,22.12
2023-05-09T16:49:10.410Z,22.18
2023-05-09T16:51:37.873Z,22.16
2023-05-09T16:54:05.178Z,22.13
2023-05-09T16:56:32.651Z,22.13
2023-05-09T16:59:00.130Z,22.10
2023-05-09T17:01:28.093Z,22.00
2023-05-09T17:03:55.759Z,21.90
2023-05-09T17:06:23.013Z,21.88
2023-05-09T17:08:50.273Z,21.97
2023-05-09T17:11:17.627Z,21.98
2023-05-09T17:13:44.858Z,22.06
2023-05-09T17:16:12.341Z,22.20
2023-05-09T17:18:39.651Z,22.27
2023-05-09T17:21:06.980Z,22.30
2023-05-09T17:23:34.414Z,22.32
2023-05-09T17:26:02.009Z,22.32
2023-05-09T17:28:31.989Z,22.35
2023-05-09T17:30:59.487Z,22.38
2023-05-09T17:33:27.483Z,22.39
2023-05-09T17:35:54.816Z,22.40
2023-05-09T17:38:22.364Z,22.40
2023-05-09T17:40:50.010Z,22.40
2023-05-09T17:43:17.234Z,22.40
2023-05-09T17:45:45.940Z,22.42
2023-05-09T17:48:13.629Z,22.43
2023-05-09T17:50:41.549Z,22.41
2023-05-09T17:53:09.586Z,22.42
2023-05-09T17:55:36.889Z,22.43
2023-05-09T17:58:04.198Z,22.45
2023-05-09T18:00:31.550Z,22.41
2023-05-09T18:03:00.689Z,22.37
2023-05-09T18:05:28.384Z,22.39
2023-05-09T18:07:57.337Z,22.39
2023-05-09T18:10:24.732Z,22.40
2023-05-09T18:12:52.320Z,22.40
2023-05-09T18:15:19.568Z,22.38
2023-05-09T18:17:48.315Z,22.38
2023-05-09T18:20:15.933Z,22.38
2023-05-09T18:22:43.325Z,22.38
2023-05-09T18:25:10.868Z,22.37
2023-05-09T18:27:38.320Z,22.37
2023-05-09T18:30:06.758Z,22.39
2023-05-09T18:32:34.020Z,22.40
2023-05-09T18:35:01.444Z,22.41
2023-05-09T18:37:28.761Z,22.42
2023-05-09T18:39:55.993Z,22.40
2023-05-09T18:42:23.252Z,22.34
2023-05-09T18:44:51.127Z,22.32
2023-05-09T18:47:18.582Z,22.30
2023-05-09T18:49:46.232Z,22.29
2023-05-09T18:52:14.230Z,22.32
2023-05-09T18:54:42.166Z,22.33
2023-05-09T18:57:09.942Z,22.34
2023-05-09T18:59:37.460Z,22.35
2023-05-09T19:02:04.678Z,22.35
2023-05-09T19:04:31.886Z,22.36
2023-05-09T19:07:00.143Z,22.36
2023-05-09T19:09:30.738Z,22.36
2023-05-09T19:11:59.556Z,22.38
2023-05-09T19:14:26.777Z,22.40
2023-05-09T19:16:54.041Z,22.42
2023-05-09T19:19:21.597Z,22.44
2023-05-09T19:21:50.216Z,22.39
2023-05-09T19:24:18.074Z,22.35
2023-05-09T19:26:45.571Z,22.41
2023-05-09T19:29:13.068Z,22.51
2023-05-09T19:31:40.412Z,22.56
2023-05-09T19:34:07.861Z,22.60
2023-05-09T19:36:35.381Z,22.63
2023-05-09T19:39:03.201Z,22.67
2023-05-09T19:41:30.716Z,22.68
2023-05-09T19:43:58.007Z,22.71
2023-05-09T19:46:25.541Z,22.72
2023-05-09T19:48:52.994Z,22.73
2023-05-09T19:51:20.446Z,22.75
2023-05-09T19:53:48.097Z,22.76
2023-05-09T19:56:17.052Z,22.79
2023-05-09T19:58:44.440Z,22.79
2023-05-09T20:01:11.923Z,22.81
2023-05-09T20:03:42.266Z,22.81
2023-05-09T20:06:09.766Z,22.82
2023-05-09T20:08:37.341Z,22.84
2023-05-09T20:11:04.690Z,22.42
2023-05-09T20:13:32.185Z,22.20
2023-05-09T20:16:02.093Z,22.17
2023-05-09T20:18:33.220Z,22.08
2023-05-09T20:21:03.891Z,22.00
2023-05-09T20:23:32.218Z,21.90
2023-05-09T20:25:59.639Z,21.92
2023-05-09T20:28:27.317Z,21.54
2023-05-09T20:30:55.745Z,20.79
2023-05-09T20:33:23.272Z,21.23
2023-05-09T20:35:50.772Z,21.15
2023-05-09T20:38:19.163Z,21.12
2023-05-09T20:40:47.218Z,21.23
2023-05-09T20:43:14.673Z,21.35
2023-05-09T20:45:42.965Z,21.45
2023-05-09T20:48:10.462Z,21.44
2023-05-09T20:50:38.069Z,21.43
2023-05-09T20:53:05.494Z,21.42
2023-05-09T20:55:33.000Z,21.51
2023-05-09T20:58:00.335Z,21.42
2023-05-09T21:00:28.082Z,21.18
2023-05-09T21:02:58.621Z,21.02
2023-05-09T21:05:26.323Z,20.83
2023-05-09T21:07:53.778Z,20.88
2023-05-09T21:10:20.997Z,20.89
2023-05-09T21:12:48.484Z,20.88
2023-05-09T21:15:15.879Z,20.78
2023-05-09T21:17:43.374Z,20.74
2023-05-09T21:20:10.869Z,20.68
2023-05-09T21:22:38.270Z,20.74
2023-05-09T21:25:06.009Z,20.59
2023-05-09T21:27:33.350Z,20.82
2023-05-09T21:30:00.604Z,21.11
2023-05-09T21:32:28.629Z,21.27
2023-05-09T21:34:55.896Z,21.33
2023-05-09T21:37:23.325Z,21.12
2023-05-09T21:39:50.749Z,20.82
2023-05-09T21:42:18.197Z,21.25
2023-05-09T21:44:45.716Z,21.59
2023-05-09T21:47:13.315Z,21.80
2023-05-09T21:49:41.752Z,21.91
2023-05-09T21:52:09.013Z,22.01
2023-05-09T21:54:36.843Z,22.07
2023-05-09T21:57:04.231Z,22.12
2023-05-09T21:59:31.961Z,22.18
2023-05-09T22:01:59.513Z,22.21
2023-05-09T22:04:26.853Z,22.24
2023-05-09T22:06:54.311Z,22.29
2023-05-09T22:09:21.989Z,22.31
2023-05-09T22:11:49.242Z,22.34
2023-05-09T22:14:16.688Z,22.35
2023-05-09T22:16:44.313Z,22.38
2023-05-09T22:19:11.630Z,22.40
2023-05-09T22:21:38.879Z,22.42
2023-05-09T22:24:07.687Z,22.45
2023-05-09T22:26:34.937Z,22.46
2023-05-09T22:29:02.446Z,22.48
2023-05-09T22:31:29.635Z,22.52
2023-05-09T22:33:56.817Z,22.53
2023-05-09T22:36:24.657Z,22.56
2023-05-09T22:38:51.950Z,22.56
2023-05-09T22:41:19.388Z,22.51
2023-05-09T22:43:46.838Z,22.44
2023-05-09T22:46:14.067Z,22.38
2023-05-09T22:48:41.504Z,22.35
2023-05-09T22:51:08.962Z,22.32
2023-05-09T22:53:36.114Z,22.32
2023-05-09T22:56:03.922Z,22.32
2023-05-09T22:58:31.104Z,22.31
2023-05-09T23:00:58.392Z,22.28
2023-05-09T23:03:25.644Z,22.27
2023-05-09T23:05:53.225Z,22.29
2023-05-09T23:08:20.412Z,22.27
2023-05-09T23:10:47.610Z,22.26
2023-05-09T23:13:14.951Z,22.28
2023-05-09T23:15:42.424Z,22.29
2023-05-09T23:18:09.659Z,22.34
2023-05-09T23:20:36.990Z,22.34
2023-05-09T23:23:04.714Z,22.34
2023-05-09T23:25:31.911Z,22.35
2023-05-09T23:27:59.089Z,22.35
2023-05-09T23:30:26.302Z,22.35
2023-05-09T23:32:53.585Z,22.37
2023-05-09T23:35:21.245Z,22.34
2023-05-09T23:37:48.522Z,22.35
2023-05-09T23:40:15.882Z,22.33
2023-05-09T23:42:43.353Z,22.33
2023-05-09T23:45:10.765Z,22.34
2023-05-09T23:47:38.456Z,22.35
2023-05-09T23:50:06.607Z,22.35
2023-05-09T23:52:33.788Z,22.34
2023-05-09T23:55:00.948Z,22.33
2023-05-09T23:57:28.663Z,22.35
2023-05-09T23:59:55.922Z,22.34
